logo
Search for airport 
image banner adimage banner adimage banner ad
image banner ad

SDQ6 - Fazenda Sao Mateus

Located in Luciara, Brazil

ICAO - SDQ6, IATA -

Data provided by Airmate  

General information

Coordinates: S11°11'40" W50°52'49"
Elevation is 688 feet MSL.
Magnetic variation is -20.916666667° East
View others Airports in Tocatins

Operational data

Special qualification required
Current time UTC:
Current local time:
Weather at : - ( 0 km )
METAR: OPLA 162025Z 19007KT 5000 FU NSC 31/25 Q1000 NOSIG RMK QFE975 A29.55
View NOTAMs / SUP AIP / TFR affecting this airport [VIEW]
Communications frequencies: [VIEW]

Runways:

RWY identifierQFULength (ft)Width (ft)SurfaceLDA (ft)
05246159ASPH
23246159ASPH

Airport contact information

Address: Luciara Brazil

Satellite view of SDQ6